createdAt,value
2022-08-29T00:00:42.117Z,78.40
2022-08-29T00:11:06.847Z,78.88
2022-08-29T00:21:28.363Z,79.71
2022-08-29T00:31:50.006Z,81.60
2022-08-29T00:42:11.653Z,81.95
2022-08-29T00:52:46.951Z,83.72
2022-08-29T01:03:08.807Z,83.97
2022-08-29T01:13:37.133Z,85.99
2022-08-29T01:24:15.365Z,85.57
2022-08-29T01:34:36.956Z,87.93
2022-08-29T01:45:00.570Z,89.17
2022-08-29T01:55:24.495Z,90.04
2022-08-29T02:05:47.784Z,90.56
2022-08-29T02:16:10.185Z,91.53
2022-08-29T02:26:31.804Z,93.39
2022-08-29T02:36:53.366Z,95.11
2022-08-29T02:47:15.029Z,97.21
2022-08-29T02:57:36.535Z,97.13
2022-08-29T03:07:59.064Z,97.00
2022-08-29T03:18:20.684Z,99.69
2022-08-29T03:28:45.430Z,100.00
2022-08-29T03:39:07.088Z,100.00
2022-08-29T03:49:28.910Z,100.00
2022-08-29T03:59:54.108Z,100.00
2022-08-29T04:10:23.037Z,100.00
2022-08-29T04:20:44.978Z,100.00
2022-08-29T04:31:12.824Z,100.00
2022-08-29T04:41:35.342Z,100.00
2022-08-29T04:51:56.924Z,100.00
2022-08-29T05:02:18.556Z,100.00
2022-08-29T05:12:40.921Z,100.00
2022-08-29T05:23:02.457Z,100.00
2022-08-29T05:33:24.042Z,100.00
2022-08-29T05:43:45.702Z,100.00
2022-08-29T05:54:07.688Z,100.00
2022-08-29T06:04:29.484Z,100.00
2022-08-29T06:14:51.310Z,100.00
2022-08-29T06:25:37.348Z,100.00
2022-08-29T06:35:55.691Z,100.00
2022-08-29T06:46:35.764Z,100.00
2022-08-29T06:56:58.322Z,100.00
2022-08-29T07:07:19.861Z,100.00
2022-08-29T07:17:42.038Z,100.00
2022-08-29T07:28:05.014Z,100.00
2022-08-29T07:38:28.461Z,100.00
2022-08-29T07:48:51.132Z,100.00
2022-08-29T07:59:13.543Z,100.00
2022-08-29T08:09:35.060Z,96.25
2022-08-29T08:19:56.577Z,93.31
2022-08-29T08:30:18.499Z,95.33
2022-08-29T08:41:04.486Z,94.14
2022-08-29T08:51:30.863Z,91.11
2022-08-29T09:02:07.678Z,88.49
2022-08-29T09:13:07.254Z,87.65
2022-08-29T09:23:49.401Z,88.66
2022-08-29T09:34:13.381Z,88.43
2022-08-29T09:44:35.964Z,86.26
2022-08-29T09:54:57.773Z,87.31
2022-08-29T10:05:35.377Z,84.29
2022-08-29T10:16:29.557Z,84.61
2022-08-29T10:27:05.061Z,81.29
2022-08-29T10:37:32.008Z,80.10
2022-08-29T10:48:10.023Z,78.55
2022-08-29T10:58:56.957Z,78.87
2022-08-29T11:09:33.135Z,78.67
2022-08-29T11:20:15.847Z,77.10
2022-08-29T11:31:02.365Z,74.22
2022-08-29T11:41:32.924Z,76.56
2022-08-29T11:51:58.511Z,76.10
2022-08-29T12:02:43.606Z,75.25
2022-08-29T12:13:08.605Z,71.68
2022-08-29T12:23:36.413Z,73.24
2022-08-29T12:34:02.930Z,72.64
2022-08-29T12:44:47.536Z,71.93
2022-08-29T12:55:32.645Z,74.12
2022-08-29T13:06:04.305Z,72.95
2022-08-29T13:16:30.037Z,74.34
2022-08-29T13:27:04.745Z,72.72
2022-08-29T13:37:37.297Z,71.76
2022-08-29T13:48:03.046Z,72.37
2022-08-29T13:58:26.788Z,71.74
2022-08-29T14:08:49.043Z,72.70
2022-08-29T14:19:10.695Z,73.69
2022-08-29T14:29:33.996Z,74.84
2022-08-29T14:39:55.655Z,75.68
2022-08-29T14:50:19.904Z,75.87
2022-08-29T15:00:42.199Z,75.26
2022-08-29T15:11:03.722Z,74.61
2022-08-29T15:21:26.223Z,75.18
2022-08-29T15:31:47.811Z,74.21
2022-08-29T15:42:11.845Z,73.22
2022-08-29T15:52:38.799Z,71.27
2022-08-29T16:03:02.811Z,72.02
2022-08-29T16:13:24.678Z,71.02
2022-08-29T16:23:47.533Z,71.49
2022-08-29T16:34:09.024Z,74.90
2022-08-29T16:44:31.798Z,74.80
2022-08-29T16:54:53.801Z,76.45
2022-08-29T17:05:15.978Z,77.57
2022-08-29T17:15:37.866Z,78.34
2022-08-29T17:26:00.611Z,78.94
2022-08-29T17:36:22.468Z,79.70
2022-08-29T17:46:45.449Z,81.29
2022-08-29T17:57:07.279Z,82.23
2022-08-29T18:07:29.718Z,82.73
2022-08-29T18:17:52.879Z,82.69
2022-08-29T18:28:14.625Z,84.07
2022-08-29T18:38:37.519Z,84.36
2022-08-29T18:48:59.229Z,84.27
2022-08-29T18:59:20.744Z,84.31
2022-08-29T19:09:43.500Z,85.00
2022-08-29T19:20:27.699Z,85.50
2022-08-29T19:30:49.964Z,85.53
2022-08-29T19:41:12.749Z,85.87
2022-08-29T19:51:34.404Z,86.21
2022-08-29T20:01:58.437Z,86.76
2022-08-29T20:12:20.072Z,87.36
2022-08-29T20:22:42.115Z,87.82
2022-08-29T20:33:04.707Z,87.82
2022-08-29T20:43:28.576Z,88.07
2022-08-29T20:53:50.090Z,87.15
2022-08-29T21:04:31.398Z,88.29
2022-08-29T21:14:53.165Z,87.66
2022-08-29T21:25:15.191Z,87.58
2022-08-29T21:35:40.420Z,86.95
2022-08-29T21:46:01.977Z,86.63
2022-08-29T21:56:25.371Z,86.74
2022-08-29T22:06:47.196Z,86.67
2022-08-29T22:17:15.755Z,86.88
2022-08-29T22:27:37.459Z,86.97
2022-08-29T22:37:59.175Z,86.54
2022-08-29T22:48:20.728Z,87.45
2022-08-29T22:58:42.257Z,87.99
2022-08-29T23:09:04.694Z,89.03
2022-08-29T23:19:26.590Z,89.43
2022-08-29T23:29:51.651Z,89.05
2022-08-29T23:40:13.254Z,88.74
2022-08-29T23:50:34.816Z,88.12
